sensor_id;sensor_type;location;lat;lon;timestamp;P1;durP1;ratioP1;P2;durP2;ratioP2
6438;SDS011;3252;52.540;13.290;2022-10-31T00:01:58;39.20;;;23.93;;
6438;SDS011;3252;52.540;13.290;2022-10-31T00:04:00;40.30;;;25.73;;
6438;SDS011;3252;52.540;13.290;2022-10-31T00:06:03;40.10;;;23.87;;
6438;SDS011;3252;52.540;13.290;2022-10-31T00:08:05;41.90;;;23.13;;
6438;SDS011;3252;52.540;13.290;2022-10-31T00:10:07;42.13;;;23.80;;
6438;SDS011;3252;52.540;13.290;2022-10-31T00:12:10;36.93;;;24.37;;
6438;SDS011;3252;52.540;13.290;2022-10-31T00:14:12;32.77;;;21.83;;
6438;SDS011;3252;52.540;13.290;2022-10-31T00:16:15;40.30;;;23.03;;
6438;SDS011;3252;52.540;13.290;2022-10-31T00:18:18;31.07;;;20.83;;
6438;SDS011;3252;52.540;13.290;2022-10-31T00:20:20;37.10;;;21.27;;
6438;SDS011;3252;52.540;13.290;2022-10-31T00:22:22;37.97;;;21.50;;
6438;SDS011;3252;52.540;13.290;2022-10-31T00:24:24;35.97;;;21.73;;
6438;SDS011;3252;52.540;13.290;2022-10-31T00:26:26;38.53;;;20.63;;
6438;SDS011;3252;52.540;13.290;2022-10-31T00:28:29;39.57;;;21.53;;
6438;SDS011;3252;52.540;13.290;2022-10-31T00:30:32;39.33;;;22.23;;
6438;SDS011;3252;52.540;13.290;2022-10-31T00:32:36;34.27;;;21.03;;
6438;SDS011;3252;52.540;13.290;2022-10-31T00:34:38;35.20;;;18.83;;
6438;SDS011;3252;52.540;13.290;2022-10-31T00:36:40;33.90;;;20.10;;
6438;SDS011;3252;52.540;13.290;2022-10-31T00:38:46;36.27;;;19.17;;
6438;SDS011;3252;52.540;13.290;2022-10-31T00:40:49;36.10;;;19.00;;
6438;SDS011;3252;52.540;13.290;2022-10-31T00:42:50;33.67;;;18.47;;
6438;SDS011;3252;52.540;13.290;2022-10-31T00:44:52;32.43;;;19.40;;
6438;SDS011;3252;52.540;13.290;2022-10-31T00:46:54;42.63;;;20.23;;
6438;SDS011;3252;52.540;13.290;2022-10-31T00:48:58;34.23;;;19.57;;
6438;SDS011;3252;52.540;13.290;2022-10-31T00:51:00;34.10;;;19.23;;
6438;SDS011;3252;52.540;13.290;2022-10-31T00:53:02;29.87;;;19.13;;
6438;SDS011;3252;52.540;13.290;2022-10-31T00:55:05;38.33;;;19.63;;
6438;SDS011;3252;52.540;13.290;2022-10-31T00:57:07;37.50;;;19.00;;
6438;SDS011;3252;52.540;13.290;2022-10-31T00:59:09;31.90;;;18.77;;
6438;SDS011;3252;52.540;13.290;2022-10-31T01:01:11;36.17;;;19.60;;
6438;SDS011;3252;52.540;13.290;2022-10-31T01:03:13;35.93;;;19.77;;
6438;SDS011;3252;52.540;13.290;2022-10-31T01:05:17;31.43;;;19.03;;
6438;SDS011;3252;52.540;13.290;2022-10-31T01:07:20;32.70;;;18.73;;
6438;SDS011;3252;52.540;13.290;2022-10-31T01:09:22;34.13;;;18.60;;
6438;SDS011;3252;52.540;13.290;2022-10-31T01:11:24;25.40;;;18.30;;
6438;SDS011;3252;52.540;13.290;2022-10-31T01:13:26;31.00;;;19.43;;
6438;SDS011;3252;52.540;13.290;2022-10-31T01:15:28;28.53;;;18.87;;
6438;SDS011;3252;52.540;13.290;2022-10-31T01:17:30;34.57;;;19.40;;
6438;SDS011;3252;52.540;13.290;2022-10-31T01:19:32;34.43;;;19.30;;
6438;SDS011;3252;52.540;13.290;2022-10-31T01:21:35;39.57;;;20.10;;
6438;SDS011;3252;52.540;13.290;2022-10-31T01:23:37;33.07;;;19.97;;
6438;SDS011;3252;52.540;13.290;2022-10-31T01:25:40;32.63;;;19.17;;
6438;SDS011;3252;52.540;13.290;2022-10-31T01:27:42;32.50;;;19.07;;
6438;SDS011;3252;52.540;13.290;2022-10-31T01:29:44;31.37;;;19.03;;
6438;SDS011;3252;52.540;13.290;2022-10-31T01:31:47;35.07;;;18.47;;
6438;SDS011;3252;52.540;13.290;2022-10-31T01:33:49;30.23;;;18.00;;
6438;SDS011;3252;52.540;13.290;2022-10-31T01:35:52;31.20;;;18.83;;
6438;SDS011;3252;52.540;13.290;2022-10-31T01:37:55;34.00;;;18.77;;
6438;SDS011;3252;52.540;13.290;2022-10-31T01:39:57;34.43;;;18.47;;
6438;SDS011;3252;52.540;13.290;2022-10-31T01:42:00;33.33;;;17.90;;
6438;SDS011;3252;52.540;13.290;2022-10-31T01:44:02;30.47;;;17.83;;
6438;SDS011;3252;52.540;13.290;2022-10-31T01:46:27;30.03;;;17.53;;
6438;SDS011;3252;52.540;13.290;2022-10-31T01:48:34;30.03;;;18.43;;
6438;SDS011;3252;52.540;13.290;2022-10-31T01:50:36;35.47;;;18.43;;
6438;SDS011;3252;52.540;13.290;2022-10-31T01:52:40;37.83;;;18.37;;
6438;SDS011;3252;52.540;13.290;2022-10-31T01:54:47;36.03;;;19.50;;
6438;SDS011;3252;52.540;13.290;2022-10-31T01:56:53;33.13;;;16.97;;
6438;SDS011;3252;52.540;13.290;2022-10-31T01:58:57;33.13;;;17.50;;
6438;SDS011;3252;52.540;13.290;2022-10-31T02:01:02;28.90;;;16.90;;
6438;SDS011;3252;52.540;13.290;2022-10-31T02:03:04;34.13;;;17.60;;
6438;SDS011;3252;52.540;13.290;2022-10-31T02:05:07;27.17;;;16.30;;
6438;SDS011;3252;52.540;13.290;2022-10-31T02:07:14;31.53;;;16.57;;
6438;SDS011;3252;52.540;13.290;2022-10-31T02:09:19;26.83;;;16.10;;
6438;SDS011;3252;52.540;13.290;2022-10-31T02:11:25;28.97;;;17.60;;
6438;SDS011;3252;52.540;13.290;2022-10-31T02:13:29;36.57;;;18.17;;
6438;SDS011;3252;52.540;13.290;2022-10-31T02:15:31;27.80;;;16.97;;
6438;SDS011;3252;52.540;13.290;2022-10-31T02:17:34;27.33;;;16.20;;
6438;SDS011;3252;52.540;13.290;2022-10-31T02:19:38;29.10;;;16.63;;
6438;SDS011;3252;52.540;13.290;2022-10-31T02:21:49;30.73;;;17.27;;
6438;SDS011;3252;52.540;13.290;2022-10-31T02:24:00;28.73;;;15.17;;
6438;SDS011;3252;52.540;13.290;2022-10-31T02:29:01;28.47;;;16.03;;
6438;SDS011;3252;52.540;13.290;2022-10-31T02:31:24;25.07;;;15.03;;
6438;SDS011;3252;52.540;13.290;2022-10-31T02:33:34;23.33;;;14.97;;
6438;SDS011;3252;52.540;13.290;2022-10-31T02:35:42;25.97;;;15.37;;
6438;SDS011;3252;52.540;13.290;2022-10-31T02:37:54;24.53;;;14.90;;
6438;SDS011;3252;52.540;13.290;2022-10-31T02:40:04;27.23;;;14.63;;
6438;SDS011;3252;52.540;13.290;2022-10-31T02:42:33;32.20;;;14.87;;
6438;SDS011;3252;52.540;13.290;2022-10-31T02:44:44;24.37;;;13.70;;
6438;SDS011;3252;52.540;13.290;2022-10-31T02:46:53;25.63;;;13.83;;
6438;SDS011;3252;52.540;13.290;2022-10-31T02:49:02;23.00;;;14.50;;
6438;SDS011;3252;52.540;13.290;2022-10-31T02:51:10;22.37;;;14.47;;
6438;SDS011;3252;52.540;13.290;2022-10-31T02:53:14;25.27;;;14.10;;
6438;SDS011;3252;52.540;13.290;2022-10-31T02:57:51;29.93;;;14.67;;
6438;SDS011;3252;52.540;13.290;2022-10-31T02:59:56;26.10;;;14.13;;
6438;SDS011;3252;52.540;13.290;2022-10-31T03:06:59;26.63;;;14.73;;
6438;SDS011;3252;52.540;13.290;2022-10-31T03:09:10;25.73;;;14.50;;
6438;SDS011;3252;52.540;13.290;2022-10-31T03:11:18;28.47;;;15.53;;
6438;SDS011;3252;52.540;13.290;2022-10-31T03:13:26;26.27;;;13.90;;
6438;SDS011;3252;52.540;13.290;2022-10-31T03:15:36;30.13;;;13.93;;
6438;SDS011;3252;52.540;13.290;2022-10-31T03:17:45;34.13;;;14.63;;
6438;SDS011;3252;52.540;13.290;2022-10-31T03:19:54;24.03;;;13.27;;
6438;SDS011;3252;52.540;13.290;2022-10-31T03:22:00;27.23;;;13.73;;
6438;SDS011;3252;52.540;13.290;2022-10-31T03:24:07;22.70;;;13.60;;
6438;SDS011;3252;52.540;13.290;2022-10-31T03:26:11;27.67;;;14.80;;
6438;SDS011;3252;52.540;13.290;2022-10-31T03:28:15;27.30;;;14.10;;
6438;SDS011;3252;52.540;13.290;2022-10-31T03:30:20;23.63;;;13.33;;
6438;SDS011;3252;52.540;13.290;2022-10-31T03:32:31;22.83;;;12.97;;
6438;SDS011;3252;52.540;13.290;2022-10-31T03:34:39;22.67;;;12.90;;
6438;SDS011;3252;52.540;13.290;2022-10-31T03:36:42;27.20;;;14.37;;
6438;SDS011;3252;52.540;13.290;2022-10-31T03:38:48;20.83;;;12.60;;
6438;SDS011;3252;52.540;13.290;2022-10-31T03:40:52;21.73;;;12.87;;
6438;SDS011;3252;52.540;13.290;2022-10-31T03:43:00;23.37;;;13.10;;
6438;SDS011;3252;52.540;13.290;2022-10-31T03:45:08;23.37;;;12.73;;
6438;SDS011;3252;52.540;13.290;2022-10-31T03:47:14;24.80;;;12.90;;
6438;SDS011;3252;52.540;13.290;2022-10-31T03:49:17;21.77;;;13.33;;
6438;SDS011;3252;52.540;13.290;2022-10-31T03:51:22;21.37;;;11.90;;
6438;SDS011;3252;52.540;13.290;2022-10-31T03:53:30;25.63;;;13.77;;
6438;SDS011;3252;52.540;13.290;2022-10-31T03:55:37;19.83;;;11.90;;
6438;SDS011;3252;52.540;13.290;2022-10-31T03:57:43;22.53;;;12.57;;
6438;SDS011;3252;52.540;13.290;2022-10-31T03:59:53;21.83;;;11.97;;
6438;SDS011;3252;52.540;13.290;2022-10-31T04:02:00;24.07;;;12.20;;
6438;SDS011;3252;52.540;13.290;2022-10-31T04:04:06;20.70;;;12.73;;
6438;SDS011;3252;52.540;13.290;2022-10-31T04:06:10;21.93;;;13.30;;
6438;SDS011;3252;52.540;13.290;2022-10-31T04:08:17;27.27;;;13.27;;
6438;SDS011;3252;52.540;13.290;2022-10-31T04:10:22;23.93;;;12.33;;
6438;SDS011;3252;52.540;13.290;2022-10-31T04:12:27;25.70;;;12.60;;
6438;SDS011;3252;52.540;13.290;2022-10-31T04:14:49;23.37;;;13.00;;
6438;SDS011;3252;52.540;13.290;2022-10-31T04:16:51;22.27;;;12.27;;
6438;SDS011;3252;52.540;13.290;2022-10-31T04:18:59;19.70;;;12.47;;
6438;SDS011;3252;52.540;13.290;2022-10-31T04:21:02;24.60;;;12.80;;
6438;SDS011;3252;52.540;13.290;2022-10-31T04:23:08;22.57;;;12.83;;
6438;SDS011;3252;52.540;13.290;2022-10-31T04:25:21;20.17;;;12.20;;
6438;SDS011;3252;52.540;13.290;2022-10-31T04:27:23;22.27;;;11.23;;
6438;SDS011;3252;52.540;13.290;2022-10-31T04:29:25;26.90;;;12.43;;
6438;SDS011;3252;52.540;13.290;2022-10-31T04:31:27;23.97;;;12.87;;
6438;SDS011;3252;52.540;13.290;2022-10-31T04:33:29;21.70;;;12.07;;
6438;SDS011;3252;52.540;13.290;2022-10-31T04:35:31;24.43;;;13.10;;
6438;SDS011;3252;52.540;13.290;2022-10-31T04:37:33;21.60;;;12.47;;
6438;SDS011;3252;52.540;13.290;2022-10-31T04:39:37;20.10;;;11.60;;
6438;SDS011;3252;52.540;13.290;2022-10-31T04:42:01;29.00;;;11.57;;
6438;SDS011;3252;52.540;13.290;2022-10-31T04:44:03;22.27;;;12.53;;
6438;SDS011;3252;52.540;13.290;2022-10-31T04:46:06;22.47;;;12.57;;
6438;SDS011;3252;52.540;13.290;2022-10-31T04:48:09;23.07;;;12.53;;
6438;SDS011;3252;52.540;13.290;2022-10-31T04:50:13;20.83;;;12.10;;
6438;SDS011;3252;52.540;13.290;2022-10-31T04:52:15;21.17;;;12.57;;
6438;SDS011;3252;52.540;13.290;2022-10-31T04:54:17;28.23;;;13.27;;
6438;SDS011;3252;52.540;13.290;2022-10-31T04:56:45;20.83;;;12.77;;
6438;SDS011;3252;52.540;13.290;2022-10-31T04:58:54;19.93;;;12.07;;
6438;SDS011;3252;52.540;13.290;2022-10-31T05:00:58;20.60;;;11.53;;
6438;SDS011;3252;52.540;13.290;2022-10-31T05:03:00;22.30;;;12.37;;
6438;SDS011;3252;52.540;13.290;2022-10-31T05:05:02;24.97;;;12.43;;
6438;SDS011;3252;52.540;13.290;2022-10-31T05:07:06;20.93;;;11.73;;
6438;SDS011;3252;52.540;13.290;2022-10-31T05:09:08;25.90;;;12.57;;
6438;SDS011;3252;52.540;13.290;2022-10-31T05:11:12;21.40;;;12.60;;
6438;SDS011;3252;52.540;13.290;2022-10-31T05:13:14;17.23;;;11.47;;
6438;SDS011;3252;52.540;13.290;2022-10-31T05:15:52;26.07;;;12.73;;
6438;SDS011;3252;52.540;13.290;2022-10-31T05:18:20;22.00;;;12.00;;
6438;SDS011;3252;52.540;13.290;2022-10-31T05:20:40;27.80;;;13.30;;
6438;SDS011;3252;52.540;13.290;2022-10-31T05:22:59;24.37;;;12.87;;
6438;SDS011;3252;52.540;13.290;2022-10-31T05:25:01;23.83;;;13.03;;
6438;SDS011;3252;52.540;13.290;2022-10-31T05:27:04;21.97;;;12.50;;
6438;SDS011;3252;52.540;13.290;2022-10-31T05:29:06;22.87;;;12.30;;
6438;SDS011;3252;52.540;13.290;2022-10-31T05:31:10;23.90;;;12.63;;
6438;SDS011;3252;52.540;13.290;2022-10-31T05:33:12;20.97;;;13.33;;
6438;SDS011;3252;52.540;13.290;2022-10-31T05:35:40;27.63;;;13.20;;
6438;SDS011;3252;52.540;13.290;2022-10-31T05:37:58;25.37;;;13.03;;
6438;SDS011;3252;52.540;13.290;2022-10-31T05:40:01;22.87;;;12.50;;
6438;SDS011;3252;52.540;13.290;2022-10-31T05:42:04;24.73;;;12.13;;
6438;SDS011;3252;52.540;13.290;2022-10-31T05:44:06;27.40;;;12.20;;
6438;SDS011;3252;52.540;13.290;2022-10-31T05:46:23;22.03;;;12.40;;
6438;SDS011;3252;52.540;13.290;2022-10-31T05:48:51;29.27;;;13.80;;
6438;SDS011;3252;52.540;13.290;2022-10-31T05:51:13;22.90;;;13.30;;
6438;SDS011;3252;52.540;13.290;2022-10-31T05:53:15;22.23;;;12.13;;
6438;SDS011;3252;52.540;13.290;2022-10-31T05:55:18;22.77;;;12.67;;
6438;SDS011;3252;52.540;13.290;2022-10-31T05:57:40;24.70;;;11.60;;
6438;SDS011;3252;52.540;13.290;2022-10-31T05:59:42;18.33;;;11.93;;
6438;SDS011;3252;52.540;13.290;2022-10-31T06:01:45;21.57;;;12.27;;
6438;SDS011;3252;52.540;13.290;2022-10-31T06:04:01;23.10;;;12.47;;
6438;SDS011;3252;52.540;13.290;2022-10-31T06:06:03;22.50;;;12.87;;
6438;SDS011;3252;52.540;13.290;2022-10-31T06:08:11;28.40;;;11.97;;
6438;SDS011;3252;52.540;13.290;2022-10-31T06:10:14;26.30;;;12.20;;
6438;SDS011;3252;52.540;13.290;2022-10-31T06:12:16;21.73;;;12.03;;
6438;SDS011;3252;52.540;13.290;2022-10-31T06:14:39;23.67;;;11.73;;
6438;SDS011;3252;52.540;13.290;2022-10-31T06:16:42;27.10;;;12.70;;
6438;SDS011;3252;52.540;13.290;2022-10-31T06:19:08;22.03;;;11.67;;
6438;SDS011;3252;52.540;13.290;2022-10-31T06:21:10;20.47;;;12.50;;
6438;SDS011;3252;52.540;13.290;2022-10-31T06:23:13;24.13;;;11.50;;
6438;SDS011;3252;52.540;13.290;2022-10-31T06:25:17;17.63;;;11.43;;
6438;SDS011;3252;52.540;13.290;2022-10-31T06:27:23;22.00;;;11.43;;
6438;SDS011;3252;52.540;13.290;2022-10-31T06:29:26;22.17;;;12.07;;
6438;SDS011;3252;52.540;13.290;2022-10-31T06:31:53;21.27;;;12.17;;
6438;SDS011;3252;52.540;13.290;2022-10-31T06:33:56;22.90;;;12.60;;
6438;SDS011;3252;52.540;13.290;2022-10-31T06:35:59;20.40;;;12.50;;
6438;SDS011;3252;52.540;13.290;2022-10-31T06:38:01;18.13;;;11.97;;
6438;SDS011;3252;52.540;13.290;2022-10-31T06:40:11;22.57;;;12.77;;
6438;SDS011;3252;52.540;13.290;2022-10-31T06:42:33;26.10;;;11.93;;
6438;SDS011;3252;52.540;13.290;2022-10-31T06:44:35;26.57;;;12.67;;
6438;SDS011;3252;52.540;13.290;2022-10-31T06:47:09;26.43;;;12.87;;
6438;SDS011;3252;52.540;13.290;2022-10-31T06:49:26;30.73;;;12.97;;
6438;SDS011;3252;52.540;13.290;2022-10-31T06:51:32;23.93;;;12.73;;
6438;SDS011;3252;52.540;13.290;2022-10-31T06:53:34;17.17;;;12.07;;
6438;SDS011;3252;52.540;13.290;2022-10-31T06:55:38;22.77;;;12.87;;
6438;SDS011;3252;52.540;13.290;2022-10-31T06:57:40;28.93;;;13.37;;
6438;SDS011;3252;52.540;13.290;2022-10-31T06:59:42;23.67;;;12.70;;
6438;SDS011;3252;52.540;13.290;2022-10-31T07:01:53;25.97;;;11.93;;
6438;SDS011;3252;52.540;13.290;2022-10-31T07:03:56;23.73;;;12.60;;
6438;SDS011;3252;52.540;13.290;2022-10-31T07:05:58;22.40;;;12.63;;
6438;SDS011;3252;52.540;13.290;2022-10-31T07:08:02;27.03;;;13.17;;
6438;SDS011;3252;52.540;13.290;2022-10-31T07:10:05;34.57;;;14.00;;
6438;SDS011;3252;52.540;13.290;2022-10-31T07:12:26;29.23;;;14.37;;
6438;SDS011;3252;52.540;13.290;2022-10-31T07:14:32;25.97;;;13.77;;
6438;SDS011;3252;52.540;13.290;2022-10-31T07:16:35;26.20;;;13.83;;
6438;SDS011;3252;52.540;13.290;2022-10-31T07:18:38;27.07;;;13.93;;
6438;SDS011;3252;52.540;13.290;2022-10-31T07:20:42;33.00;;;14.00;;
6438;SDS011;3252;52.540;13.290;2022-10-31T07:22:44;26.57;;;13.57;;
6438;SDS011;3252;52.540;13.290;2022-10-31T07:24:47;34.70;;;15.13;;
6438;SDS011;3252;52.540;13.290;2022-10-31T07:27:27;29.57;;;13.77;;
6438;SDS011;3252;52.540;13.290;2022-10-31T07:29:29;31.63;;;14.90;;
6438;SDS011;3252;52.540;13.290;2022-10-31T07:31:32;26.07;;;14.70;;
6438;SDS011;3252;52.540;13.290;2022-10-31T07:33:39;26.93;;;15.20;;
6438;SDS011;3252;52.540;13.290;2022-10-31T07:35:59;24.63;;;13.70;;
6438;SDS011;3252;52.540;13.290;2022-10-31T07:38:07;32.57;;;15.80;;
6438;SDS011;3252;52.540;13.290;2022-10-31T07:40:12;31.60;;;16.50;;
6438;SDS011;3252;52.540;13.290;2022-10-31T07:42:14;32.10;;;17.93;;
6438;SDS011;3252;52.540;13.290;2022-10-31T07:44:18;37.57;;;19.37;;
6438;SDS011;3252;52.540;13.290;2022-10-31T07:46:43;34.27;;;15.60;;
6438;SDS011;3252;52.540;13.290;2022-10-31T07:49:08;37.50;;;18.40;;
6438;SDS011;3252;52.540;13.290;2022-10-31T07:51:29;33.97;;;17.10;;
6438;SDS011;3252;52.540;13.290;2022-10-31T07:53:51;47.70;;;29.10;;
6438;SDS011;3252;52.540;13.290;2022-10-31T07:56:00;41.43;;;20.20;;
6438;SDS011;3252;52.540;13.290;2022-10-31T07:58:04;34.10;;;17.60;;
6438;SDS011;3252;52.540;13.290;2022-10-31T08:00:09;36.83;;;17.70;;
6438;SDS011;3252;52.540;13.290;2022-10-31T08:02:17;28.13;;;16.70;;
6438;SDS011;3252;52.540;13.290;2022-10-31T08:04:22;31.80;;;17.13;;
6438;SDS011;3252;52.540;13.290;2022-10-31T08:06:42;27.47;;;15.83;;
6438;SDS011;3252;52.540;13.290;2022-10-31T08:08:52;35.03;;;15.67;;
6438;SDS011;3252;52.540;13.290;2022-10-31T08:10:54;30.63;;;16.57;;
6438;SDS011;3252;52.540;13.290;2022-10-31T08:12:58;31.40;;;16.77;;
6438;SDS011;3252;52.540;13.290;2022-10-31T08:15:02;33.70;;;17.07;;
6438;SDS011;3252;52.540;13.290;2022-10-31T08:17:04;35.37;;;16.47;;
6438;SDS011;3252;52.540;13.290;2022-10-31T08:19:15;25.53;;;15.90;;
6438;SDS011;3252;52.540;13.290;2022-10-31T08:21:17;28.67;;;16.97;;
6438;SDS011;3252;52.540;13.290;2022-10-31T08:23:21;30.17;;;17.20;;
6438;SDS011;3252;52.540;13.290;2022-10-31T08:25:23;29.07;;;16.80;;
6438;SDS011;3252;52.540;13.290;2022-10-31T08:27:26;28.87;;;16.27;;
6438;SDS011;3252;52.540;13.290;2022-10-31T08:29:32;35.00;;;17.63;;
6438;SDS011;3252;52.540;13.290;2022-10-31T08:31:35;35.73;;;16.67;;
6438;SDS011;3252;52.540;13.290;2022-10-31T08:33:55;35.87;;;17.23;;
6438;SDS011;3252;52.540;13.290;2022-10-31T08:36:26;28.53;;;16.57;;
6438;SDS011;3252;52.540;13.290;2022-10-31T08:38:36;29.50;;;17.10;;
6438;SDS011;3252;52.540;13.290;2022-10-31T08:40:39;29.20;;;17.63;;
6438;SDS011;3252;52.540;13.290;2022-10-31T08:42:41;32.17;;;17.50;;
6438;SDS011;3252;52.540;13.290;2022-10-31T08:44:44;31.47;;;17.47;;
6438;SDS011;3252;52.540;13.290;2022-10-31T08:46:47;40.30;;;18.03;;
6438;SDS011;3252;52.540;13.290;2022-10-31T08:48:49;30.77;;;17.43;;
6438;SDS011;3252;52.540;13.290;2022-10-31T08:50:55;33.63;;;16.80;;
6438;SDS011;3252;52.540;13.290;2022-10-31T08:53:01;32.77;;;17.33;;
6438;SDS011;3252;52.540;13.290;2022-10-31T08:55:04;27.93;;;16.47;;
6438;SDS011;3252;52.540;13.290;2022-10-31T08:57:33;33.37;;;17.27;;
6438;SDS011;3252;52.540;13.290;2022-10-31T08:59:35;31.87;;;17.60;;
6438;SDS011;3252;52.540;13.290;2022-10-31T09:01:55;30.33;;;18.67;;
6438;SDS011;3252;52.540;13.290;2022-10-31T09:03:58;38.37;;;17.50;;
6438;SDS011;3252;52.540;13.290;2022-10-31T09:06:01;40.50;;;21.40;;
6438;SDS011;3252;52.540;13.290;2022-10-31T09:08:09;39.30;;;19.47;;
6438;SDS011;3252;52.540;13.290;2022-10-31T09:10:11;32.40;;;18.83;;
6438;SDS011;3252;52.540;13.290;2022-10-31T09:12:13;36.33;;;18.37;;
6438;SDS011;3252;52.540;13.290;2022-10-31T09:14:41;33.47;;;18.37;;
6438;SDS011;3252;52.540;13.290;2022-10-31T09:16:56;35.83;;;18.97;;
6438;SDS011;3252;52.540;13.290;2022-10-31T09:19:05;35.70;;;19.97;;
6438;SDS011;3252;52.540;13.290;2022-10-31T09:21:08;44.00;;;20.40;;
6438;SDS011;3252;52.540;13.290;2022-10-31T09:23:10;34.07;;;20.13;;
6438;SDS011;3252;52.540;13.290;2022-10-31T09:25:14;33.60;;;19.33;;
6438;SDS011;3252;52.540;13.290;2022-10-31T09:27:22;36.57;;;20.00;;
6438;SDS011;3252;52.540;13.290;2022-10-31T09:29:23;37.07;;;20.10;;
6438;SDS011;3252;52.540;13.290;2022-10-31T09:31:31;32.43;;;19.73;;
6438;SDS011;3252;52.540;13.290;2022-10-31T09:33:41;41.33;;;19.20;;
6438;SDS011;3252;52.540;13.290;2022-10-31T09:36:15;38.67;;;19.57;;
6438;SDS011;3252;52.540;13.290;2022-10-31T09:38:18;38.07;;;20.00;;
6438;SDS011;3252;52.540;13.290;2022-10-31T09:40:21;36.87;;;19.23;;
6438;SDS011;3252;52.540;13.290;2022-10-31T09:42:38;38.03;;;20.03;;
6438;SDS011;3252;52.540;13.290;2022-10-31T09:44:56;32.63;;;19.43;;
6438;SDS011;3252;52.540;13.290;2022-10-31T09:47:10;35.30;;;20.10;;
6438;SDS011;3252;52.540;13.290;2022-10-31T09:49:46;37.47;;;23.03;;
6438;SDS011;3252;52.540;13.290;2022-10-31T09:51:59;41.77;;;20.53;;
6438;SDS011;3252;52.540;13.290;2022-10-31T09:54:05;39.43;;;20.43;;
6438;SDS011;3252;52.540;13.290;2022-10-31T09:56:13;33.37;;;18.97;;
6438;SDS011;3252;52.540;13.290;2022-10-31T09:58:18;35.70;;;20.27;;
6438;SDS011;3252;52.540;13.290;2022-10-31T10:00:24;36.10;;;20.03;;
6438;SDS011;3252;52.540;13.290;2022-10-31T10:02:29;31.63;;;19.90;;
6438;SDS011;3252;52.540;13.290;2022-10-31T10:04:37;32.47;;;21.40;;
6438;SDS011;3252;52.540;13.290;2022-10-31T10:06:52;37.20;;;21.07;;
6438;SDS011;3252;52.540;13.290;2022-10-31T10:09:24;33.53;;;19.53;;
6438;SDS011;3252;52.540;13.290;2022-10-31T10:11:51;39.80;;;21.47;;
6438;SDS011;3252;52.540;13.290;2022-10-31T10:14:04;34.43;;;20.03;;
6438;SDS011;3252;52.540;13.290;2022-10-31T10:16:25;37.67;;;20.03;;
6438;SDS011;3252;52.540;13.290;2022-10-31T10:18:43;44.57;;;23.10;;
6438;SDS011;3252;52.540;13.290;2022-10-31T10:20:58;37.10;;;21.93;;
6438;SDS011;3252;52.540;13.290;2022-10-31T10:23:14;37.07;;;22.17;;
6438;SDS011;3252;52.540;13.290;2022-10-31T10:25:26;38.40;;;20.60;;
6438;SDS011;3252;52.540;13.290;2022-10-31T10:27:49;37.77;;;20.60;;
6438;SDS011;3252;52.540;13.290;2022-10-31T10:30:03;36.27;;;20.73;;
6438;SDS011;3252;52.540;13.290;2022-10-31T10:32:13;36.17;;;19.87;;
6438;SDS011;3252;52.540;13.290;2022-10-31T10:34:22;36.60;;;20.70;;
6438;SDS011;3252;52.540;13.290;2022-10-31T10:36:28;38.23;;;20.97;;
6438;SDS011;3252;52.540;13.290;2022-10-31T10:38:38;28.70;;;18.90;;
6438;SDS011;3252;52.540;13.290;2022-10-31T10:40:45;32.70;;;20.33;;
6438;SDS011;3252;52.540;13.290;2022-10-31T10:42:52;43.70;;;24.40;;
6438;SDS011;3252;52.540;13.290;2022-10-31T10:45:19;37.90;;;21.57;;
6438;SDS011;3252;52.540;13.290;2022-10-31T10:47:40;43.40;;;21.60;;
6438;SDS011;3252;52.540;13.290;2022-10-31T10:49:44;37.67;;;21.87;;
6438;SDS011;3252;52.540;13.290;2022-10-31T10:51:51;42.37;;;21.93;;
6438;SDS011;3252;52.540;13.290;2022-10-31T10:54:07;43.23;;;20.87;;
6438;SDS011;3252;52.540;13.290;2022-10-31T10:56:30;37.80;;;20.97;;
6438;SDS011;3252;52.540;13.290;2022-10-31T10:58:42;34.53;;;19.87;;
6438;SDS011;3252;52.540;13.290;2022-10-31T11:00:45;37.00;;;20.50;;
6438;SDS011;3252;52.540;13.290;2022-10-31T11:02:49;32.93;;;20.93;;
6438;SDS011;3252;52.540;13.290;2022-10-31T11:04:52;41.53;;;21.30;;
6438;SDS011;3252;52.540;13.290;2022-10-31T11:06:56;39.17;;;21.07;;
6438;SDS011;3252;52.540;13.290;2022-10-31T11:09:09;38.27;;;22.23;;
6438;SDS011;3252;52.540;13.290;2022-10-31T11:11:22;38.53;;;20.97;;
6438;SDS011;3252;52.540;13.290;2022-10-31T11:13:27;37.13;;;21.50;;
6438;SDS011;3252;52.540;13.290;2022-10-31T11:15:31;42.77;;;21.80;;
6438;SDS011;3252;52.540;13.290;2022-10-31T11:17:37;43.37;;;22.60;;
6438;SDS011;3252;52.540;13.290;2022-10-31T11:19:41;43.47;;;22.37;;
6438;SDS011;3252;52.540;13.290;2022-10-31T11:21:43;40.20;;;20.97;;
6438;SDS011;3252;52.540;13.290;2022-10-31T11:23:45;38.70;;;23.43;;
6438;SDS011;3252;52.540;13.290;2022-10-31T11:25:49;44.17;;;22.60;;
6438;SDS011;3252;52.540;13.290;2022-10-31T11:28:00;42.60;;;22.80;;
6438;SDS011;3252;52.540;13.290;2022-10-31T11:30:03;36.13;;;22.57;;
6438;SDS011;3252;52.540;13.290;2022-10-31T11:32:08;47.80;;;22.43;;
6438;SDS011;3252;52.540;13.290;2022-10-31T11:34:23;44.90;;;22.90;;
6438;SDS011;3252;52.540;13.290;2022-10-31T11:36:31;39.37;;;22.43;;
6438;SDS011;3252;52.540;13.290;2022-10-31T11:38:39;42.87;;;23.33;;
6438;SDS011;3252;52.540;13.290;2022-10-31T11:40:52;42.63;;;23.97;;
6438;SDS011;3252;52.540;13.290;2022-10-31T11:42:56;39.93;;;21.83;;
6438;SDS011;3252;52.540;13.290;2022-10-31T11:45:00;40.83;;;21.47;;
6438;SDS011;3252;52.540;13.290;2022-10-31T11:47:09;49.20;;;22.67;;
6438;SDS011;3252;52.540;13.290;2022-10-31T11:49:17;39.53;;;22.03;;
6438;SDS011;3252;52.540;13.290;2022-10-31T11:51:21;33.03;;;20.77;;
6438;SDS011;3252;52.540;13.290;2022-10-31T11:53:26;35.03;;;20.97;;
6438;SDS011;3252;52.540;13.290;2022-10-31T11:55:31;34.10;;;20.40;;
6438;SDS011;3252;52.540;13.290;2022-10-31T11:57:43;43.67;;;22.67;;
6438;SDS011;3252;52.540;13.290;2022-10-31T11:59:50;37.13;;;22.67;;
6438;SDS011;3252;52.540;13.290;2022-10-31T12:01:53;44.43;;;22.80;;
6438;SDS011;3252;52.540;13.290;2022-10-31T12:04:00;40.93;;;22.60;;
6438;SDS011;3252;52.540;13.290;2022-10-31T12:06:09;40.17;;;22.97;;
6438;SDS011;3252;52.540;13.290;2022-10-31T12:08:13;39.60;;;22.37;;
6438;SDS011;3252;52.540;13.290;2022-10-31T12:10:15;42.37;;;25.03;;
6438;SDS011;3252;52.540;13.290;2022-10-31T12:12:25;42.20;;;22.83;;
6438;SDS011;3252;52.540;13.290;2022-10-31T12:14:54;38.27;;;22.57;;
6438;SDS011;3252;52.540;13.290;2022-10-31T12:17:08;44.30;;;22.50;;
6438;SDS011;3252;52.540;13.290;2022-10-31T12:19:19;41.03;;;21.23;;
6438;SDS011;3252;52.540;13.290;2022-10-31T12:21:40;43.53;;;21.53;;
6438;SDS011;3252;52.540;13.290;2022-10-31T12:23:56;36.50;;;20.87;;
6438;SDS011;3252;52.540;13.290;2022-10-31T12:26:08;36.30;;;20.97;;
6438;SDS011;3252;52.540;13.290;2022-10-31T12:28:23;35.07;;;21.33;;
6438;SDS011;3252;52.540;13.290;2022-10-31T12:30:49;36.03;;;20.90;;
6438;SDS011;3252;52.540;13.290;2022-10-31T12:35:44;36.20;;;21.20;;
6438;SDS011;3252;52.540;13.290;2022-10-31T12:37:54;38.50;;;20.97;;
6438;SDS011;3252;52.540;13.290;2022-10-31T12:40:17;38.03;;;22.00;;
6438;SDS011;3252;52.540;13.290;2022-10-31T12:42:38;39.73;;;22.03;;
6438;SDS011;3252;52.540;13.290;2022-10-31T12:47:26;39.17;;;22.60;;
6438;SDS011;3252;52.540;13.290;2022-10-31T12:49:46;42.67;;;22.33;;
6438;SDS011;3252;52.540;13.290;2022-10-31T12:51:59;37.03;;;21.20;;
6438;SDS011;3252;52.540;13.290;2022-10-31T12:54:18;39.10;;;22.47;;
6438;SDS011;3252;52.540;13.290;2022-10-31T12:56:32;40.60;;;22.50;;